Time;durP1;ratioP1;P1;durP2;ratioP2;P2;SDS_P1;SDS_P2;PMS_P1;PMS_P2;Temp;Humidity;BMP_temperature;BMP_pressure;BME280_temperature;BME280_humidity;BME280_pressure;Samples;Min_cycle;Max_cycle;Signal;HPM_P1;HPM_P2
2022/10/11 00:00:53;;;;;;;15.50;7.40;;;8.80;99.90;;;;;;4770878;30;20270;-83
2022/10/11 00:03:20;;;;;;;14.37;7.30;;;8.80;99.90;;;;;;4754315;30;20209;-85
2022/10/11 00:05:47;;;;;;;16.10;7.47;;;8.80;99.90;;;;;;4753816;30;20248;-84
2022/10/11 00:08:14;;;;;;;14.37;7.50;;;8.70;99.90;;;;;;4754529;30;20661;-86
2022/10/11 00:10:41;;;;;;;12.37;7.10;;;8.70;99.90;;;;;;4754159;30;20594;-85
2022/10/11 00:13:08;;;;;;;12.13;7.10;;;8.70;99.90;;;;;;4754131;30;20207;-85
2022/10/11 00:15:35;;;;;;;16.17;6.77;;;8.80;99.90;;;;;;4754243;30;20242;-84
2022/10/11 00:18:02;;;;;;;18.07;7.37;;;8.70;99.90;;;;;;4754278;30;20227;-84
2022/10/11 00:20:31;;;;;;;13.17;7.03;;;8.60;99.90;;;;;;4754061;30;20660;-82
2022/10/11 00:22:58;;;;;;;13.37;6.87;;;8.70;99.90;;;;;;4754033;30;20273;-85
2022/10/11 00:25:25;;;;;;;14.37;7.07;;;8.70;99.90;;;;;;4754266;30;20212;-85
2022/10/11 00:27:52;;;;;;;15.27;7.63;;;8.60;99.90;;;;;;4769198;30;20209;-84
2022/10/11 00:30:19;;;;;;;16.13;7.20;;;8.70;99.90;;;;;;4754239;30;20205;-83
2022/10/11 00:32:46;;;;;;;11.63;6.80;;;8.50;99.90;;;;;;4768797;30;20680;-86
2022/10/11 00:35:13;;;;;;;14.07;7.40;;;8.60;99.90;;;;;;4754087;30;20520;-86
2022/10/11 00:37:40;;;;;;;14.13;6.83;;;8.60;99.90;;;;;;4753889;30;20218;-86
2022/10/11 00:40:13;;;;;;;15.67;6.93;;;8.50;99.90;;;;;;4770673;30;20196;-84
2022/10/11 00:42:40;;;;;;;13.70;6.77;;;8.50;99.90;;;;;;4770550;30;20212;-85
2022/10/11 00:45:39;;;;;;;16.17;7.87;;;8.40;99.90;;;;;;4770186;30;20201;-86
2022/10/11 00:48:13;;;;;;;14.07;7.30;;;8.40;99.90;;;;;;4733006;30;20241;-86
2022/10/11 00:50:41;;;;;;;14.97;6.90;;;8.30;99.90;;;;;;4718341;30;20221;-86
2022/10/11 00:53:10;;;;;;;14.70;6.97;;;8.30;99.90;;;;;;4718318;30;20671;-86
2022/10/11 00:55:52;;;;;;;14.20;6.50;;;8.40;99.90;;;;;;4718007;30;20264;-85
2022/10/11 00:58:20;;;;;;;15.13;7.67;;;8.40;99.90;;;;;;4718221;30;20694;-85
2022/10/11 01:00:47;;;;;;;13.77;7.13;;;8.30;99.90;;;;;;4717993;30;20202;-86
2022/10/11 01:03:18;;;;;;;12.77;6.80;;;8.30;99.90;;;;;;4720347;30;20218;-87
2022/10/11 01:05:46;;;;;;;11.97;6.93;;;8.30;99.90;;;;;;4735826;30;20255;-87
2022/10/11 01:08:13;;;;;;;12.13;6.90;;;8.20;99.90;;;;;;4735517;30;20717;-85
2022/10/11 01:10:40;;;;;;;16.60;7.33;;;8.20;99.90;;;;;;4721793;30;20305;-87
2022/10/11 01:13:36;;;;;;;15.77;7.40;;;8.20;99.90;;;;;;4721760;30;20288;-87
2022/10/11 01:16:24;;;;;;;12.07;6.60;;;8.30;99.90;;;;;;4720988;30;20206;-85
2022/10/11 01:19:38;;;;;;;17.60;7.00;;;8.30;99.90;;;;;;4735628;30;20295;-84
2022/10/11 01:22:49;;;;;;;13.57;7.07;;;8.20;99.90;;;;;;4700936;30;20255;-85
2022/10/11 01:25:42;;;;;;;17.37;7.67;;;8.20;99.90;;;;;;4683453;30;20630;-84
2022/10/11 01:28:15;;;;;;;12.80;7.10;;;8.20;99.90;;;;;;4684117;30;20761;-83
2022/10/11 01:30:43;;;;;;;13.57;7.53;;;8.20;99.90;;;;;;4683513;30;20782;-84
2022/10/11 01:33:22;;;;;;;16.17;7.33;;;8.20;99.90;;;;;;4668989;30;20707;-84
2022/10/11 01:36:11;;;;;;;15.77;7.80;;;8.20;99.90;;;;;;4669231;30;20535;-83
2022/10/11 01:38:45;;;;;;;14.20;7.50;;;8.10;99.90;;;;;;4669070;30;20239;-84
2022/10/11 01:41:23;;;;;;;16.00;8.50;;;8.20;99.90;;;;;;4785068;24;20245;-85
2022/10/11 01:43:58;;;;;;;16.53;7.97;;;8.10;99.90;;;;;;4778458;29;20210;-84
2022/10/11 01:46:27;;;;;;;16.00;7.43;;;8.10;99.90;;;;;;4792538;29;20211;-85
2022/10/11 01:48:56;;;;;;;16.27;7.47;;;8.20;99.90;;;;;;4808184;29;20241;-84
2022/10/11 01:51:34;;;;;;;13.80;7.40;;;8.20;99.90;;;;;;4792271;29;20239;-84
2022/10/11 01:54:16;;;;;;;16.27;8.07;;;8.10;99.90;;;;;;4791774;29;20291;-83
2022/10/11 01:57:02;;;;;;;16.47;8.00;;;8.10;99.90;;;;;;4792151;29;20276;-85
2022/10/11 01:59:29;;;;;;;17.17;7.83;;;8.20;99.90;;;;;;4791554;29;20218;-79
2022/10/11 02:02:12;;;;;;;14.57;7.53;;;8.10;99.90;;;;;;4792071;29;20194;-86
2022/10/11 02:04:42;;;;;;;13.67;7.80;;;8.10;99.90;;;;;;4791888;29;20271;-85
2022/10/11 02:07:28;;;;;;;14.80;7.33;;;8.20;99.90;;;;;;4791575;29;20559;-84
2022/10/11 02:10:03;;;;;;;19.00;8.37;;;8.20;99.90;;;;;;4791555;29;20207;-84
2022/10/11 02:12:39;;;;;;;14.77;7.70;;;8.30;99.90;;;;;;4791624;29;20240;-83
2022/10/11 02:15:10;;;;;;;16.33;8.30;;;8.30;99.90;;;;;;4791544;29;20212;-84
2022/10/11 02:17:43;;;;;;;16.17;7.93;;;8.30;99.90;;;;;;4792905;29;20207;-84
2022/10/11 02:20:17;;;;;;;14.43;7.50;;;8.40;99.90;;;;;;4807623;29;20196;-83
2022/10/11 02:22:48;;;;;;;18.33;8.87;;;8.30;99.90;;;;;;4802627;29;20222;-85
2022/10/11 02:25:21;;;;;;;15.17;8.10;;;8.30;99.90;;;;;;4774226;30;20201;-84
2022/10/11 02:27:52;;;;;;;15.67;7.63;;;8.40;99.90;;;;;;4774244;30;20666;-84
2022/10/11 02:30:19;;;;;;;18.13;7.87;;;8.40;99.90;;;;;;4773972;30;20232;-84
2022/10/11 02:32:47;;;;;;;16.13;7.93;;;8.30;99.90;;;;;;4773835;30;20228;-84
2022/10/11 02:35:16;;;;;;;18.13;8.13;;;8.40;99.90;;;;;;4774137;29;20256;-85
2022/10/11 02:37:53;;;;;;;16.67;8.30;;;8.40;99.90;;;;;;4773357;30;20211;-85
2022/10/11 02:40:28;;;;;;;13.70;7.97;;;8.40;99.90;;;;;;4773464;30;20595;-84
2022/10/11 02:43:08;;;;;;;15.23;7.73;;;8.40;99.90;;;;;;4773749;30;20876;-84
2022/10/11 02:45:40;;;;;;;17.70;8.00;;;8.40;99.90;;;;;;4773341;30;20688;-83
2022/10/11 02:48:09;;;;;;;13.63;7.60;;;8.40;99.90;;;;;;4773558;30;20199;-84
2022/10/11 02:50:40;;;;;;;15.97;7.80;;;8.50;99.90;;;;;;4773286;30;20202;-84
2022/10/11 02:53:07;;;;;;;18.27;8.03;;;8.40;99.90;;;;;;4773183;30;20266;-84
2022/10/11 02:55:35;;;;;;;14.27;7.90;;;8.40;99.90;;;;;;4773092;30;20612;-84
2022/10/11 02:58:02;;;;;;;16.20;8.33;;;8.50;99.90;;;;;;4789507;29;20197;-85
2022/10/11 03:00:29;;;;;;;17.73;7.63;;;8.50;99.90;;;;;;4788934;29;20647;-85
2022/10/11 03:02:57;;;;;;;16.70;8.73;;;8.60;99.90;;;;;;4773324;30;20200;-83
2022/10/11 03:05:24;;;;;;;13.83;7.83;;;8.50;99.90;;;;;;4773063;30;20338;-84
2022/10/11 03:07:51;;;;;;;16.03;8.40;;;8.50;99.90;;;;;;4772726;30;20211;-83
2022/10/11 03:10:18;;;;;;;18.07;8.07;;;8.50;99.90;;;;;;4772606;30;20239;-84
2022/10/11 03:12:56;;;;;;;17.03;8.30;;;8.40;99.90;;;;;;4773273;30;20236;-83
2022/10/11 03:15:23;;;;;;;21.60;8.67;;;8.40;99.90;;;;;;4772789;29;20207;-84
2022/10/11 03:17:50;;;;;;;14.63;8.23;;;8.50;99.90;;;;;;4773149;30;20208;-84
2022/10/11 03:20:17;;;;;;;14.23;7.93;;;8.60;99.90;;;;;;4772990;30;20200;-84
2022/10/11 03:22:43;;;;;;;15.57;7.83;;;8.50;99.90;;;;;;4788625;29;20233;-86
2022/10/11 03:25:11;;;;;;;15.20;8.63;;;8.60;99.90;;;;;;4772135;30;20246;-85
2022/10/11 03:27:38;;;;;;;16.50;8.33;;;8.60;99.90;;;;;;4772573;30;20215;-84
2022/10/11 03:30:07;;;;;;;16.50;8.40;;;8.70;99.90;;;;;;4772494;29;20215;-84
2022/10/11 03:32:34;;;;;;;16.73;8.37;;;8.60;99.90;;;;;;4772344;30;20318;-83
2022/10/11 03:35:02;;;;;;;18.50;8.20;;;8.60;99.90;;;;;;4772251;30;20204;-85
2022/10/11 03:37:35;;;;;;;18.27;9.07;;;8.60;99.90;;;;;;4772775;30;20216;-84
2022/10/11 03:40:11;;;;;;;16.27;8.50;;;8.70;99.90;;;;;;4768930;30;20266;-85
2022/10/11 03:42:38;;;;;;;15.50;8.40;;;8.70;99.90;;;;;;4770307;30;20303;-84
2022/10/11 03:45:08;;;;;;;21.03;9.37;;;8.70;99.90;;;;;;4770609;30;20215;-82
2022/10/11 03:47:37;;;;;;;16.93;8.77;;;8.80;99.90;;;;;;4770770;30;20554;-86
2022/10/11 03:50:06;;;;;;;17.93;8.07;;;8.80;99.90;;;;;;4769456;30;20585;-84
2022/10/11 03:52:33;;;;;;;15.07;8.57;;;8.80;99.90;;;;;;4769793;30;20236;-84
2022/10/11 03:55:00;;;;;;;16.20;8.70;;;8.80;99.90;;;;;;4769743;30;20209;-82
2022/10/11 03:57:27;;;;;;;17.90;8.77;;;8.90;99.90;;;;;;4770297;30;20215;-84
2022/10/11 03:59:54;;;;;;;16.83;9.07;;;8.90;99.90;;;;;;4771091;30;20205;-84
2022/10/11 04:02:21;;;;;;;14.53;8.37;;;9.00;99.90;;;;;;4769536;30;20234;-84
2022/10/11 04:04:48;;;;;;;18.60;9.53;;;9.00;99.90;;;;;;4771287;30;20212;-84
2022/10/11 04:07:15;;;;;;;17.07;9.20;;;8.90;99.90;;;;;;4770916;30;20189;-83
2022/10/11 04:09:43;;;;;;;19.10;9.57;;;9.00;99.90;;;;;;4771047;30;20292;-84
2022/10/11 04:12:11;;;;;;;14.90;9.43;;;9.10;99.90;;;;;;4769411;30;20232;-84
2022/10/11 04:14:39;;;;;;;17.37;8.80;;;9.10;99.90;;;;;;4769897;30;20207;-83
2022/10/11 04:17:06;;;;;;;16.53;9.20;;;9.10;99.90;;;;;;4769433;30;20236;-86
2022/10/11 04:19:36;;;;;;;18.37;9.63;;;9.10;99.90;;;;;;4771105;30;20212;-86
2022/10/11 04:22:04;;;;;;;19.97;9.40;;;9.10;99.90;;;;;;4769345;30;20216;-85
2022/10/11 04:24:31;;;;;;;17.27;9.30;;;9.10;99.90;;;;;;4770508;30;20687;-85
2022/10/11 04:26:58;;;;;;;15.60;9.00;;;9.30;99.90;;;;;;4769123;30;20209;-85
2022/10/11 04:29:25;;;;;;;18.70;10.20;;;9.20;99.90;;;;;;4770548;30;20197;-85
2022/10/11 04:31:58;;;;;;;17.30;9.03;;;9.20;99.90;;;;;;4768911;30;20204;-86
2022/10/11 04:34:26;;;;;;;15.03;8.90;;;9.20;99.90;;;;;;4770815;30;20566;-85
2022/10/11 04:36:52;;;;;;;17.53;9.50;;;9.20;99.90;;;;;;4769564;30;20667;-85
2022/10/11 04:39:19;;;;;;;17.07;9.43;;;9.20;99.90;;;;;;4772208;30;20262;-85
2022/10/11 04:41:47;;;;;;;19.00;9.87;;;9.20;99.90;;;;;;4772600;30;20237;-84
2022/10/11 04:44:14;;;;;;;19.53;9.60;;;9.20;99.90;;;;;;4772207;30;20243;-85
2022/10/11 04:46:41;;;;;;;18.03;10.10;;;9.20;99.90;;;;;;4773491;30;20205;-85
2022/10/11 04:49:08;;;;;;;17.63;9.33;;;9.20;99.90;;;;;;4757701;30;20204;-85
2022/10/11 04:51:35;;;;;;;19.17;9.67;;;9.20;99.90;;;;;;4773529;30;20218;-84
2022/10/11 04:54:02;;;;;;;20.30;10.37;;;9.30;99.90;;;;;;4772290;30;20699;-86
2022/10/11 04:56:29;;;;;;;20.63;10.13;;;9.20;99.90;;;;;;4772124;30;20248;-86
2022/10/11 04:58:57;;;;;;;19.20;9.90;;;9.20;99.90;;;;;;4772419;30;20307;-84
2022/10/11 05:01:24;;;;;;;17.20;9.43;;;9.20;99.90;;;;;;4772382;30;20308;-85
2022/10/11 05:03:51;;;;;;;17.10;9.50;;;9.10;99.90;;;;;;4773159;30;20664;-85
2022/10/11 05:06:18;;;;;;;20.80;10.47;;;9.10;99.90;;;;;;4772784;30;20686;-85
2022/10/11 05:08:45;;;;;;;28.20;10.80;;;9.20;99.90;;;;;;4771607;30;20212;-92
2022/10/11 05:11:35;;;;;;;17.20;9.67;;;9.10;99.90;;;;;;4772086;30;20217;-93
2022/10/11 05:14:02;;;;;;;17.03;9.90;;;9.10;99.90;;;;;;4773910;30;20228;-93
2022/10/11 05:16:29;;;;;;;17.90;10.10;;;9.10;99.90;;;;;;4772672;30;20212;-92
2022/10/11 05:19:11;;;;;;;18.13;10.17;;;9.00;99.90;;;;;;4782680;24;20667;-86
2022/10/11 05:21:38;;;;;;;21.20;10.37;;;9.00;99.90;;;;;;4790682;29;20630;-89
2022/10/11 05:24:08;;;;;;;38.20;11.00;;;9.00;99.90;;;;;;4780418;30;20251;-88
2022/10/11 05:26:35;;;;;;;20.77;11.20;;;9.00;99.90;;;;;;4771735;30;20209;-88
2022/10/11 05:29:02;;;;;;;18.50;10.10;;;8.90;99.90;;;;;;4771660;30;20239;-86
2022/10/11 05:31:29;;;;;;;21.27;11.13;;;8.90;99.90;;;;;;4772717;30;20263;-86
2022/10/11 05:33:56;;;;;;;21.87;10.93;;;9.00;99.90;;;;;;4771628;30;20227;-87
2022/10/11 05:36:32;;;;;;;19.90;11.17;;;9.00;99.90;;;;;;4771680;30;20208;-88
2022/10/11 05:38:59;;;;;;;21.43;10.57;;;9.00;99.90;;;;;;4772768;30;20288;-88
2022/10/11 05:41:26;;;;;;;18.80;10.73;;;9.00;99.90;;;;;;4772754;30;20256;-88
2022/10/11 05:43:53;;;;;;;25.43;11.47;;;9.00;99.90;;;;;;4771574;30;20204;-88
2022/10/11 05:46:20;;;;;;;22.57;12.07;;;9.00;99.90;;;;;;4771325;30;20209;-86
2022/10/11 05:48:47;;;;;;;31.40;12.47;;;9.00;99.90;;;;;;4770963;30;20201;-84
2022/10/11 05:51:13;;;;;;;23.20;12.03;;;9.10;99.90;;;;;;4770970;30;20208;-83
2022/10/11 05:53:46;;;;;;;24.90;12.80;;;9.10;99.90;;;;;;4771358;30;20220;-84
2022/10/11 05:56:24;;;;;;;47.80;15.13;;;9.10;99.90;;;;;;4770559;30;20209;-84
2022/10/11 05:58:52;;;;;;;25.33;12.03;;;9.20;99.90;;;;;;4771730;30;20752;-93
2022/10/11 06:01:26;;;;;;;22.47;12.10;;;9.30;99.90;;;;;;4772067;30;20213;-87
2022/10/11 06:03:56;;;;;;;26.30;13.07;;;9.20;99.90;;;;;;4772994;30;20231;-88
2022/10/11 06:06:55;;;;;;;21.00;12.63;;;9.40;99.90;;;;;;4790372;24;20243;-89
2022/10/11 06:12:17;;;;;;;24.03;13.10;;;9.40;99.90;;;;;;4789654;30;20850;-88
2022/10/11 06:14:44;;;;;;;22.83;12.33;;;9.50;99.90;;;;;;4760020;30;20212;-86
2022/10/11 06:17:52;;;;;;;24.97;13.03;;;9.60;99.90;;;;;;4774127;30;20207;-84
2022/10/11 06:22:53;;;;;;;24.20;13.30;;;9.70;99.90;;;;;;4787512;29;20224;-86
2022/10/11 06:25:20;;;;;;;21.03;12.63;;;9.90;99.90;;;;;;4757408;30;20340;-90
2022/10/11 06:27:47;;;;;;;22.00;13.07;;;10.20;99.90;;;;;;4775920;30;20204;-88
2022/10/11 06:30:14;;;;;;;25.23;13.80;;;10.20;99.90;;;;;;4769911;30;20224;-89
2022/10/11 06:32:40;;;;;;;26.57;13.60;;;10.30;99.90;;;;;;4770692;30;20232;-90
2022/10/11 06:35:08;;;;;;;24.50;14.30;;;10.40;99.90;;;;;;4771889;30;20196;-84
2022/10/11 06:37:44;;;;;;;22.83;13.20;;;10.50;99.90;;;;;;4769949;30;20205;-84
2022/10/11 06:40:11;;;;;;;27.13;13.53;;;10.60;99.90;;;;;;4771333;30;20204;-85
2022/10/11 06:42:40;;;;;;;23.03;13.33;;;10.70;99.90;;;;;;4769876;30;20221;-82
2022/10/11 06:45:07;;;;;;;24.07;12.97;;;10.80;99.90;;;;;;4770972;30;20266;-85
2022/10/11 06:47:44;;;;;;;26.47;13.43;;;11.00;99.90;;;;;;4771262;30;20200;-82
2022/10/11 06:50:12;;;;;;;23.10;13.30;;;11.10;99.90;;;;;;4769200;30;20212;-84
2022/10/11 06:52:39;;;;;;;23.00;13.57;;;11.20;99.90;;;;;;4768985;30;20221;-85
2022/10/11 06:55:26;;;;;;;24.93;13.17;;;11.40;99.90;;;;;;4770932;30;20204;-88
2022/10/11 06:57:53;;;;;;;23.90;13.00;;;11.50;99.90;;;;;;4770197;30;20204;-81
2022/10/11 07:00:20;;;;;;;22.67;12.40;;;11.70;99.90;;;;;;4768889;30;20216;-80
2022/10/11 07:02:48;;;;;;;23.53;12.70;;;11.90;99.90;;;;;;4755264;30;20634;-83
2022/10/11 07:05:34;;;;;;;23.13;13.80;;;12.00;99.90;;;;;;4767425;30;20265;-82
2022/10/11 07:08:12;;;;;;;25.57;13.27;;;12.20;99.90;;;;;;4770185;30;20292;-81
2022/10/11 07:10:48;;;;;;;25.57;12.60;;;12.20;99.90;;;;;;4769889;30;20205;-79
2022/10/11 07:13:17;;;;;;;23.40;13.20;;;12.30;99.90;;;;;;4753943;30;20623;-84
2022/10/11 07:16:12;;;;;;;25.03;13.40;;;12.40;99.90;;;;;;4752447;30;20220;-85
2022/10/11 07:18:46;;;;;;;20.43;12.87;;;12.40;99.90;;;;;;4218212;24;18432572;-85
2022/10/11 07:21:46;;;;;;;21.20;13.27;;;12.40;99.90;;;;;;4888919;24;20606;-89
2022/10/11 07:24:13;;;;;;;24.80;13.20;;;12.40;99.90;;;;;;4784682;29;20637;-85
2022/10/11 07:26:41;;;;;;;25.20;13.63;;;12.40;99.90;;;;;;4772561;30;20208;-80
2022/10/11 07:29:21;;;;;;;24.50;13.30;;;12.40;99.90;;;;;;4771600;30;20752;-89
2022/10/11 07:32:21;;;;;;;23.07;13.97;;;12.50;99.90;;;;;;4759225;30;20691;-79
2022/10/11 07:34:49;;;;;;;24.67;14.10;;;12.50;99.90;;;;;;4772551;30;20240;-83
2022/10/11 07:37:16;;;;;;;25.63;15.53;;;12.40;99.90;;;;;;4772725;30;20573;-82
2022/10/11 07:40:21;;;;;;;25.33;14.50;;;12.30;99.90;;;;;;4772364;30;20208;-83
2022/10/11 07:42:50;;;;;;;25.43;15.37;;;12.40;99.90;;;;;;4700658;30;20219;-79
2022/10/11 07:45:18;;;;;;;27.83;15.43;;;12.30;99.90;;;;;;4701524;30;20615;-89
2022/10/11 07:47:45;;;;;;;26.17;15.70;;;12.30;99.90;;;;;;4715988;30;20214;-84
2022/10/11 07:50:12;;;;;;;26.90;15.50;;;12.40;99.90;;;;;;4701005;30;20219;-84
2022/10/11 07:52:39;;;;;;;26.20;15.27;;;12.40;99.90;;;;;;4700653;30;20222;-81
2022/10/11 07:55:15;;;;;;;23.43;14.87;;;12.30;99.90;;;;;;4701275;30;20309;-82
2022/10/11 07:58:11;;;;;;;23.57;14.40;;;12.50;99.90;;;;;;4700693;30;20300;-88
2022/10/11 08:00:41;;;;;;;23.73;15.13;;;12.70;99.90;;;;;;4715828;30;20390;-79
2022/10/11 08:03:10;;;;;;;25.10;14.63;;;12.90;99.90;;;;;;4700864;30;20207;-78
2022/10/11 08:05:38;;;;;;;22.70;14.30;;;13.00;99.90;;;;;;4715026;30;20694;-79
2022/10/11 08:08:04;;;;;;;23.93;13.67;;;13.20;99.90;;;;;;4700550;30;20221;-80
2022/10/11 08:10:37;;;;;;;22.03;12.77;;;13.40;99.90;;;;;;4700677;30;20705;-79
2022/10/11 08:13:04;;;;;;;23.10;13.57;;;13.50;99.90;;;;;;4700583;30;20245;-75
2022/10/11 08:15:33;;;;;;;20.87;12.33;;;13.60;99.90;;;;;;4701214;30;20331;-86
2022/10/11 08:18:00;;;;;;;21.30;12.60;;;13.50;99.90;;;;;;4701479;30;20685;-85
2022/10/11 08:20:27;;;;;;;21.27;12.80;;;13.60;99.90;;;;;;4776452;30;20328;-91
2022/10/11 08:22:54;;;;;;;21.53;12.50;;;13.60;99.90;;;;;;4758232;30;20302;-87
2022/10/11 08:25:21;;;;;;;20.43;12.40;;;13.60;99.90;;;;;;4772314;30;20283;-77
2022/10/11 08:27:48;;;;;;;20.43;12.60;;;13.40;99.90;;;;;;4771916;30;20208;-82
2022/10/11 08:30:15;;;;;;;20.03;12.33;;;13.30;99.90;;;;;;4771935;30;20212;-79
2022/10/11 08:32:42;;;;;;;21.63;11.73;;;13.40;99.90;;;;;;4771549;30;20204;-80
2022/10/11 08:35:09;;;;;;;20.23;11.47;;;13.40;99.90;;;;;;4771681;30;20671;-80
2022/10/11 08:37:36;;;;;;;20.80;11.23;;;13.40;99.90;;;;;;4787789;30;20583;-80
2022/10/11 08:40:04;;;;;;;19.20;11.13;;;13.40;99.90;;;;;;4772121;30;20258;-77
2022/10/11 08:42:50;;;;;;;19.07;11.30;;;13.50;99.90;;;;;;4771506;30;20235;-79
2022/10/11 08:45:30;;;;;;;17.67;10.33;;;13.60;99.90;;;;;;4771491;30;20263;-77
2022/10/11 08:48:12;;;;;;;17.87;11.00;;;13.50;99.90;;;;;;4771342;30;20204;-78
2022/10/11 08:50:39;;;;;;;18.47;11.27;;;13.60;99.90;;;;;;4771224;30;20700;-77
2022/10/11 08:53:23;;;;;;;16.17;10.87;;;13.60;99.90;;;;;;4771692;30;20206;-78
2022/10/11 08:55:53;;;;;;;17.87;10.23;;;13.70;99.90;;;;;;4787544;30;20539;-75
2022/10/11 08:58:33;;;;;;;20.53;10.80;;;13.90;99.90;;;;;;4771297;30;20201;-78
2022/10/11 09:01:02;;;;;;;18.93;10.10;;;14.00;99.90;;;;;;4771486;30;20557;-78
2022/10/11 09:03:39;;;;;;;15.70;9.70;;;14.10;99.90;;;;;;4771343;30;20200;-76
2022/10/11 09:06:28;;;;;;;19.83;10.43;;;14.10;99.90;;;;;;4756811;30;20216;-83
2022/10/11 09:09:19;;;;;;;15.63;9.60;;;14.10;99.90;;;;;;4771293;30;20573;-82
2022/10/11 09:12:31;;;;;;;17.40;9.33;;;14.10;99.90;;;;;;4787664;29;20219;-78
2022/10/11 09:15:13;;;;;;;19.00;9.20;;;14.30;99.90;;;;;;4770697;30;20241;-78
2022/10/11 09:17:50;;;;;;;14.90;9.40;;;14.40;99.90;;;;;;4771609;30;20212;-79
2022/10/11 09:20:30;;;;;;;15.80;9.17;;;14.50;99.90;;;;;;4787733;30;20626;-73
2022/10/11 09:22:56;;;;;;;14.80;8.23;;;14.60;99.90;;;;;;4772262;30;20208;-73
2022/10/11 09:25:48;;;;;;;14.27;9.10;;;14.50;99.90;;;;;;4774339;30;20232;-75
2022/10/11 09:28:20;;;;;;;14.40;8.80;;;14.70;99.90;;;;;;4774403;30;20208;-78
2022/10/11 09:30:51;;;;;;;11.93;7.57;;;14.70;99.90;;;;;;4774263;30;20567;-82
2022/10/11 09:33:32;;;;;;;13.53;8.10;;;14.70;99.90;;;;;;4774179;30;20228;-74
2022/10/11 09:36:00;;;;;;;12.17;7.50;;;14.70;99.90;;;;;;4774136;30;20284;-81
2022/10/11 09:38:34;;;;;;;12.00;7.00;;;14.60;99.90;;;;;;4774178;29;20307;-79
2022/10/11 09:41:17;;;;;;;14.20;7.20;;;14.30;99.90;;;;;;4774465;30;20658;-77
2022/10/11 09:43:47;;;;;;;14.17;7.43;;;14.20;99.90;;;;;;4774236;30;20336;-82
2022/10/11 09:46:29;;;;;;;12.43;7.30;;;14.10;99.90;;;;;;4774501;30;20270;-81
2022/10/11 09:48:56;;;;;;;11.87;6.80;;;14.20;99.90;;;;;;4790550;30;20200;-80
2022/10/11 09:51:26;;;;;;;12.87;6.83;;;14.30;99.90;;;;;;4774424;30;20204;-82
2022/10/11 09:54:00;;;;;;;13.40;7.33;;;14.30;99.90;;;;;;4790250;30;20307;-78
2022/10/11 09:56:29;;;;;;;12.87;7.23;;;14.20;99.90;;;;;;4773796;30;20219;-79
2022/10/11 09:59:15;;;;;;;12.03;7.27;;;13.90;99.90;;;;;;4790099;30;20574;-79
2022/10/11 10:01:43;;;;;;;10.13;6.77;;;13.90;99.90;;;;;;4773948;30;20212;-77
2022/10/11 10:04:18;;;;;;;15.10;6.77;;;13.90;99.90;;;;;;4773892;30;20242;-79
2022/10/11 10:06:45;;;;;;;12.27;7.40;;;14.00;99.90;;;;;;4773740;30;20233;-75
2022/10/11 10:09:31;;;;;;;13.07;7.40;;;14.00;99.90;;;;;;4774128;30;20213;-76
2022/10/11 10:11:58;;;;;;;10.77;6.50;;;14.00;99.90;;;;;;4773839;30;20214;-75
2022/10/11 10:14:28;;;;;;;10.80;5.77;;;13.90;99.90;;;;;;4789605;30;20236;-73
2022/10/11 10:17:12;;;;;;;9.17;5.80;;;13.90;99.90;;;;;;4773914;30;20208;-73
2022/10/11 10:19:46;;;;;;;10.50;5.33;;;14.00;99.90;;;;;;4773950;30;20212;-73
2022/10/11 10:22:21;;;;;;;10.83;5.30;;;14.20;99.90;;;;;;4770311;30;20266;-73
2022/10/11 10:24:50;;;;;;;11.37;5.70;;;14.20;99.90;;;;;;4770251;30;20229;-73
2022/10/11 10:27:23;;;;;;;9.77;5.53;;;14.30;99.90;;;;;;4770802;30;20212;-79
2022/10/11 10:30:15;;;;;;;7.70;5.23;;;14.30;99.90;;;;;;4771430;30;20205;-78
2022/10/11 10:33:00;;;;;;;8.33;4.93;;;14.10;99.90;;;;;;4734150;30;20212;-80
2022/10/11 10:35:48;;;;;;;9.53;4.80;;;14.10;99.90;;;;;;4732805;30;20268;-75
2022/10/11 10:38:39;;;;;;;9.40;4.93;;;14.20;99.90;;;;;;4719512;30;20210;-73
2022/10/11 10:41:12;;;;;;;10.30;4.70;;;14.50;99.90;;;;;;4733999;30;20211;-73
2022/10/11 10:43:42;;;;;;;8.63;4.60;;;15.00;99.90;;;;;;4733590;30;20751;-73
2022/10/11 10:46:29;;;;;;;8.03;4.23;;;15.20;99.90;;;;;;4719311;30;20214;-76
2022/10/11 10:49:00;;;;;;;9.13;4.07;;;15.50;99.90;;;;;;4734046;30;20303;-76
2022/10/11 10:52:02;;;;;;;8.97;3.77;;;15.30;99.90;;;;;;4719478;30;20204;-76
2022/10/11 10:54:31;;;;;;;6.63;3.60;;;15.10;99.90;;;;;;4719019;30;20257;-78
2022/10/11 10:57:09;;;;;;;8.73;3.50;;;14.90;99.90;;;;;;4733446;30;20222;-80
2022/10/11 10:59:56;;;;;;;6.67;3.23;;;15.30;99.90;;;;;;4733438;30;20214;-73
2022/10/11 11:02:51;;;;;;;6.80;2.83;;;16.00;99.90;;;;;;4718831;30;20218;-73
2022/10/11 11:05:37;;;;;;;4.53;2.47;;;16.90;99.90;;;;;;4718849;30;20255;-81
2022/10/11 11:08:33;;;;;;;7.20;2.60;;;17.90;99.90;;;;;;4719163;30;20745;-78
2022/10/11 11:11:23;;;;;;;6.20;2.60;;;18.60;99.90;;;;;;4767453;30;20213;-77
2022/10/11 11:14:01;;;;;;;6.07;2.60;;;18.00;99.90;;;;;;4769106;30;20236;-80
2022/10/11 11:16:49;;;;;;;7.73;2.33;;;17.50;99.90;;;;;;4769551;30;20213;-78
2022/10/11 11:19:34;;;;;;;5.67;2.03;;;17.50;99.90;;;;;;4769550;30;20304;-79
2022/10/11 11:22:38;;;;;;;9.63;2.90;;;17.40;99.90;;;;;;4769407;30;20250;-74
2022/10/11 11:25:17;;;;;;;3.57;1.90;;;17.40;99.90;;;;;;4766222;30;20551;-77
2022/10/11 11:28:27;;;;;;;6.63;1.90;;;18.40;99.90;;;;;;4769549;30;20240;-76
2022/10/11 11:31:17;;;;;;;4.47;1.80;;;19.30;99.90;;;;;;4769189;30;20205;-79
2022/10/11 11:33:53;;;;;;;4.80;1.93;;;20.20;99.90;;;;;;4718578;30;20206;-78
2022/10/11 11:36:40;;;;;;;3.83;1.57;;;20.40;99.90;;;;;;4718168;30;20716;-77
2022/10/11 11:39:16;;;;;;;3.40;1.77;;;20.80;99.90;;;;;;4732947;30;20222;-76
2022/10/11 11:41:50;;;;;;;5.47;1.80;;;21.50;99.90;;;;;;4718553;30;20214;-76
2022/10/11 11:44:32;;;;;;;3.70;1.80;;;21.10;99.90;;;;;;4718116;30;20211;-75
2022/10/11 11:47:10;;;;;;;7.17;2.10;;;21.10;99.90;;;;;;4718977;30;20657;-93
2022/10/11 11:49:46;;;;;;;5.03;1.80;;;21.70;99.90;;;;;;4720470;30;20209;-91
2022/10/11 11:52:25;;;;;;;4.60;1.60;;;22.70;99.90;;;;;;4719002;30;20202;-89
2022/10/11 11:55:22;;;;;;;5.23;1.70;;;22.50;98.60;;;;;;4718865;30;20289;-75
2022/10/11 11:58:27;;;;;;;3.67;1.40;;;23.40;96.50;;;;;;4734375;30;20624;-83
2022/10/11 12:01:26;;;;;;;6.20;1.98;;;24.00;95.20;;;;;;4670581;30;20208;-90
2022/10/11 12:04:25;;;;;;;5.15;1.73;;;24.50;91.60;;;;;;4699493;30;20226;-88
2022/10/11 12:07:23;;;;;;;5.38;1.88;;;24.80;89.70;;;;;;4684652;30;20220;-93
2022/10/11 12:09:54;;;;;;;6.40;1.77;;;24.60;86.70;;;;;;4651933;30;20269;-78
2022/10/11 12:12:36;;;;;;;5.13;1.92;;;24.50;83.60;;;;;;4667665;30;20220;-87
2022/10/11 12:15:09;;;;;;;5.28;1.85;;;23.50;84.50;;;;;;4670855;30;20640;-91
2022/10/11 12:17:56;;;;;;;4.78;1.48;;;22.20;84.80;;;;;;4684098;30;20224;-91
2022/10/11 12:20:27;;;;;;;4.90;1.70;;;22.60;86.60;;;;;;4668013;30;20565;-84
2022/10/11 12:22:59;;;;;;;4.83;1.60;;;23.60;84.20;;;;;;4668197;30;20307;-87
2022/10/11 12:25:26;;;;;;;5.78;1.90;;;24.10;84.30;;;;;;4681412;30;20674;-82
2022/10/11 12:28:32;;;;;;;5.35;1.80;;;24.80;81.10;;;;;;4669878;30;20219;-87
2022/10/11 12:31:18;;;;;;;5.28;1.27;;;24.50;81.30;;;;;;4701806;30;20219;-87
2022/10/11 12:33:45;;;;;;;6.03;1.90;;;23.70;82.00;;;;;;4701773;30;20199;-86
2022/10/11 12:36:34;;;;;;;4.45;1.48;;;23.30;81.20;;;;;;4700732;30;20305;-88
2022/10/11 12:39:19;;;;;;;4.50;1.70;;;22.60;82.00;;;;;;4701306;30;20226;-80
2022/10/11 12:41:46;;;;;;;4.70;1.90;;;22.60;82.30;;;;;;4700605;30;20227;-76
2022/10/11 12:44:25;;;;;;;5.72;1.75;;;22.20;84.20;;;;;;4700274;30;20218;-74
2022/10/11 12:46:52;;;;;;;4.57;1.50;;;21.80;85.50;;;;;;4755956;30;20620;-80
2022/10/11 12:50:01;;;;;;;3.83;1.47;;;22.10;84.20;;;;;;4768787;30;20292;-79
2022/10/11 12:52:39;;;;;;;5.20;1.80;;;20.70;88.00;;;;;;4770139;30;20204;-79
2022/10/11 12:55:23;;;;;;;4.77;1.77;;;19.60;90.70;;;;;;4769599;30;20254;-83
2022/10/11 12:58:18;;;;;;;4.47;1.50;;;18.60;92.10;;;;;;4769405;30;20254;-83
2022/10/11 13:01:34;;;;;;;5.00;1.50;;;18.60;93.40;;;;;;4771977;30;20205;-82
2022/10/11 13:04:37;;;;;;;6.00;1.67;;;18.10;94.10;;;;;;4771901;30;20208;-80
2022/10/11 13:07:22;;;;;;;5.33;1.60;;;18.10;95.00;;;;;;4772078;30;20684;-81
2022/10/11 13:17:33;;;;;;;5.13;1.50;;;18.00;94.00;;;;;;4787998;29;20244;-78
2022/10/11 13:23:37;;;;;;;4.77;1.53;;;17.00;94.70;;;;;;4982815;24;20588;-83
2022/10/11 13:26:04;;;;;;;3.63;1.40;;;16.70;95.40;;;;;;4765562;30;20286;-81
2022/10/11 13:28:31;;;;;;;3.40;1.47;;;16.60;96.50;;;;;;4757336;30;20262;-84
2022/10/11 13:31:04;;;;;;;4.63;1.63;;;16.60;97.10;;;;;;4757131;30;20204;-84
2022/10/11 13:33:34;;;;;;;5.67;1.60;;;16.60;97.00;;;;;;4757165;30;20193;-77
2022/10/11 13:36:04;;;;;;;5.63;2.03;;;16.70;97.40;;;;;;4756518;30;20240;-77